Nearby METAR Reports

 

KBVO - Bartlesville, Oklahoma, USA
Distance from station: WNW 10mi, 16km
Updated: Fri, 21-Sep-2018 4:53am CDT
NOT Current
Mostly cloudy
Mostly cloudy
 Wind from N
Wind: N 6 mph , 9 km/h
Temperature: 73°F , 23°C
Dew Point: 66°F , 19°C
Humidity: 78%
Barometer: 30.03 inHg , 1016.9 hPa
Clouds: Mostly cloudy
Visibility: 10 miles , 16 km
Cloud details: Mostly cloudy 4000 ft
Mostly cloudy 4800 ft
2018/09/21 09:53 KBVO 210953Z AUTO 01005KT 10SM BKN040 BKN048 23/19 A3003 RMK AO2 SLP158 T02280194
KCFV - Coffeyville, Kansas, USA
Distance from station: NNE 31mi, 49km
Updated: Fri, 21-Sep-2018 8:52am CDT
Partly cloudy
Partly cloudy
 Wind from E
Wind: E 6 mph , 9 km/h
Temperature: 72°F , 22°C
Dew Point: 66°F , 19°C
Humidity: 83%
Barometer: 30.05 inHg , 1017.6 hPa
Clouds: Partly cloudy
Visibility: 10 miles , 16 km
Cloud details: Partly cloudy 7000 ft
2018/09/21 13:52 KCFV 211352Z AUTO 10005KT 10SM SCT070 22/19 A3005 RMK AO2 SLP168 T02220194
 
KIDP - Independence, Kansas, USA
Distance from station: N 32mi, 52km
Updated: Fri, 21-Sep-2018 9:35am CDT
Clear
Clear
 Wind from NNE
Wind: NNE 7 mph , 11 km/h
Barometer: 30.09 inHg , 1019 hPa
Clouds: Clear
Visibility: 10 miles , 16 km
2018/09/21 14:35 KIDP 211435Z AUTO 03006KT 10SM CLR A3009 RMK AO2
KGCM - Claremore, Oklahoma, USA
Distance from station: SE 35mi, 56km
Updated: Fri, 21-Sep-2018 9:35am CDT
Overcast
Overcast
 Wind from NE
Wind: NE 5 mph , 7 km/h
Temperature: 70°F , 21°C
Dew Point: 68°F , 20°C
Humidity: 94%
Barometer: 30.06 inHg , 1017.9 hPa
Clouds: Overcast
Visibility: 10 miles , 16 km
Cloud details: Overcast 10000 ft
2018/09/21 14:35 KGCM 211435Z AUTO 04004KT 10SM OVC100 21/20 A3006 RMK AO2 LTG DSNT SE
 
KTUL - Tulsa, Oklahoma, USA
Distance from station: S 35mi, 56km
Updated: Fri, 21-Sep-2018 8:53am CDT
Light rain, Overcast
Light rain, Overcast
 Wind from ENE
Wind: ENE 8 mph , 13 km/h
Temperature: 72°F , 22°C
Dew Point: 72°F , 22°C
Humidity: 100%
Barometer: 30.04 inHg , 1017.3 hPa
Summary: Light rain
Clouds: Overcast
Visibility: 9 miles , 14 km
Cloud details: Few Clouds 900 ft
Partly cloudy 4600 ft
Overcast 9000 ft
2018/09/21 13:53 KTUL 211353Z 06007KT 9SM -RA FEW009 SCT046 OVC090 22/22 A3004 RMK AO2 RAE1259B09 TSE1259 SLP163 TS MOV N P0002 T02170217
KRVS - Tulsa, Oklahoma, USA
Distance from station: S 46mi, 74km
Updated: Fri, 21-Sep-2018 8:53am CDT
Mostly cloudy
Mostly cloudy
 Wind from NE
Wind: NE 13 mph , 20 km/h
Temperature: 73°F , 23°C
Dew Point: 70°F , 21°C
Humidity: 89%
Barometer: 30.04 inHg , 1017.3 hPa
Clouds: Mostly cloudy
Visibility: 10 miles , 16 km
Cloud details: Few Clouds 900 ft
Mostly cloudy 9500 ft
Mostly cloudy 11000 ft
2018/09/21 13:53 KRVS 211353Z 05011KT 10SM FEW009 BKN095 BKN110 23/21 A3004 RMK AO2 SLP176 T02280206
 
KPPF - Parsons, Kansas, USA
Distance from station: NNE 48mi, 76km
Updated: Fri, 21-Sep-2018 8:52am CDT
Clear
Clear
 Wind from calm
Wind: Calm
Temperature: 70°F , 21°C
Dew Point: 68°F , 20°C
Humidity: 94%
Barometer: 30.08 inHg , 1018.6 hPa
Clouds: Clear
Visibility: 10 miles , 16 km
2018/09/21 13:52 KPPF 211352Z AUTO 00000KT 10SM CLR 21/20 A3008 RMK AO2 SLP177 T02060200
KGMJ - Grove, Oklahoma, USA
Distance from station: E 63mi, 101km
Updated: Fri, 21-Sep-2018 9:35am CDT
Light rain, Mostly cloudy
Light rain, Mostly cloudy
 Wind from ENE
Wind: ENE 3 mph , 6 km/h
Temperature: 72°F , 22°C
Dew Point: 68°F , 20°C
Humidity: 88%
Barometer: 30.07 inHg , 1018.3 hPa
Summary: Light rain
Clouds: Mostly cloudy
Visibility: 10 miles , 16 km
Cloud details: Partly cloudy 2700 ft
Partly cloudy 3200 ft
Mostly cloudy 3800 ft
2018/09/21 14:35 KGMJ 211435Z AUTO 06003KT 10SM -RA SCT027 SCT032 BKN038 22/20 A3007 RMK AO2 LTG DSNT SE P0002
 
KPNC - Ponca City, Oklahoma, USA
Distance from station: W 69mi, 111km
Updated: Fri, 21-Sep-2018 8:53am CDT
Partly cloudy
Partly cloudy
 Wind from ENE
Wind: ENE 7 mph , 11 km/h
Temperature: 72°F , 22°C
Dew Point: 66°F , 19°C
Humidity: 83%
Barometer: 30.05 inHg , 1017.6 hPa
Clouds: Partly cloudy
Visibility: 10 miles , 16 km
Cloud details: Partly cloudy 9500 ft
2018/09/21 13:53 KPNC 211353Z AUTO 06006KT 10SM SCT095 22/19 A3005 RMK AO2 PRESRR SLP165 T02220189
KCNU - Chanute, Kansas, USA
Distance from station: NNE 69mi, 112km
Updated: Fri, 21-Sep-2018 9:42am CDT
Mostly cloudy
Mostly cloudy
 Wind from NNE
Wind: NNE 10 mph , 17 km/h, Gust: 22 mph , 35 km/h
Temperature: 72°F , 22°C
Dew Point: 68°F , 20°C
Humidity: 88%
Barometer: 30.11 inHg , 1019.6 hPa
Clouds: Mostly cloudy
Visibility: 10 miles , 16 km
Cloud details: Mostly cloudy 1400 ft
2018/09/21 14:42 KCNU 211442Z AUTO 02009G19KT 10SM BKN014 22/20 A3011 RMK AO2 T02170200